createdAt,value
2023-03-04T04:31:00.257Z,10.80
2023-03-04T04:41:43.620Z,11.43
2023-03-04T04:52:19.283Z,10.70
2023-03-04T05:02:55.115Z,12.75
2023-03-04T05:13:32.897Z,11.70
2023-03-04T05:24:08.946Z,11.93
2023-03-04T05:34:44.402Z,10.85
2023-03-04T05:45:19.749Z,13.13
2023-03-04T05:55:55.630Z,13.18
2023-03-04T06:06:31.125Z,11.88
2023-03-04T06:17:06.490Z,13.88
2023-03-04T06:27:42.235Z,12.82
2023-03-04T06:38:17.759Z,13.63
2023-03-04T06:48:53.638Z,13.00
2023-03-04T06:59:29.441Z,17.40
2023-03-04T07:10:05.396Z,17.23
2023-03-04T07:20:41.314Z,15.05
2023-03-04T07:31:29.710Z,17.45
2023-03-04T07:42:05.042Z,19.23
2023-03-04T07:52:42.624Z,20.73
2023-03-04T08:03:18.506Z,21.35
2023-03-04T08:13:54.594Z,20.70
2023-03-04T08:24:29.912Z,23.48
2023-03-04T08:35:05.955Z,23.75
2023-03-04T08:45:41.625Z,24.15
2023-03-04T08:56:17.877Z,23.38
2023-03-04T09:06:54.118Z,24.20
2023-03-04T09:17:31.321Z,26.67
2023-03-04T09:28:07.541Z,26.85
2023-03-04T09:38:43.775Z,25.17
2023-03-04T09:49:22.014Z,24.27
2023-03-04T10:00:36.437Z,24.43
2023-03-04T10:11:23.418Z,25.25
2023-03-04T10:21:59.071Z,23.33
2023-03-04T10:32:34.633Z,23.85
2023-03-04T10:43:21.154Z,23.55
2023-03-04T10:54:09.869Z,25.40
2023-03-04T11:04:52.878Z,26.77
2023-03-04T11:15:47.426Z,24.60
2023-03-04T11:26:36.625Z,23.33
2023-03-04T11:37:35.297Z,24.53
2023-03-04T11:48:36.058Z,22.67
2023-03-04T11:59:46.860Z,22.98
2023-03-04T12:10:33.296Z,21.10
2023-03-04T12:21:27.479Z,21.13
2023-03-04T12:32:18.792Z,20.65
2023-03-04T12:43:06.862Z,20.25
2023-03-04T12:54:13.693Z,20.83
2023-03-04T13:05:23.196Z,19.83
2023-03-04T13:16:26.879Z,17.70
2023-03-04T13:27:22.328Z,17.40
2023-03-04T13:37:59.812Z,19.42
2023-03-04T13:48:37.297Z,15.13
2023-03-04T13:59:22.193Z,16.23
2023-03-04T14:09:58.130Z,17.48
2023-03-04T14:20:41.342Z,16.83
2023-03-04T14:31:19.827Z,15.73
2023-03-04T14:42:01.090Z,17.80
2023-03-04T14:52:42.951Z,17.40
2023-03-04T15:03:26.056Z,15.70
2023-03-04T15:14:02.633Z,15.13
2023-03-04T15:24:38.285Z,16.13
2023-03-04T15:35:16.503Z,16.10
2023-03-04T15:45:53.092Z,15.27
2023-03-04T15:56:31.750Z,22.83
2023-03-04T16:07:07.563Z,17.83
2023-03-04T16:17:44.044Z,17.00
2023-03-04T16:28:19.938Z,17.13
2023-03-04T16:38:57.253Z,15.68
2023-03-04T16:49:33.103Z,14.35
2023-03-04T17:00:10.419Z,13.57
2023-03-04T17:10:46.003Z,12.07
2023-03-04T17:21:27.274Z,9.75
2023-03-04T17:32:02.698Z,10.88
2023-03-04T17:42:38.396Z,12.95
2023-03-04T17:53:14.260Z,17.23
2023-03-04T18:03:50.554Z,10.38
2023-03-04T18:14:26.070Z,12.02
2023-03-04T18:25:01.907Z,9.45
2023-03-04T18:35:37.875Z,29.85
2023-03-04T18:46:16.945Z,12.98
2023-03-04T18:56:59.440Z,18.05
2023-03-04T19:07:35.067Z,16.50
2023-03-04T19:18:10.875Z,17.92
2023-03-04T19:28:46.596Z,15.52
2023-03-04T19:39:23.247Z,21.50
2023-03-04T19:49:59.053Z,19.73
2023-03-04T20:00:35.539Z,18.13
2023-03-04T20:11:14.668Z,19.25
2023-03-04T20:32:26.160Z,19.40
2023-03-04T20:43:05.413Z,19.73
2023-03-04T20:53:41.088Z,17.92
2023-03-04T21:04:17.564Z,17.75
2023-03-04T21:14:53.437Z,16.92
2023-03-04T21:25:28.820Z,15.95
2023-03-04T21:36:04.848Z,20.35
2023-03-04T21:46:40.645Z,16.02
2023-03-04T21:57:17.083Z,17.23
2023-03-04T22:07:52.571Z,15.32
2023-03-04T22:18:28.520Z,18.13
2023-03-04T22:29:05.141Z,15.85
